createdAt,value
2023-03-31T00:00:10.710Z,76.80
2023-03-31T00:01:10.710Z,79.90
2023-03-31T00:02:10.702Z,73.50
2023-03-31T00:03:10.982Z,76.50
2023-03-31T00:04:10.831Z,73.70
2023-03-31T00:05:10.675Z,75.50
2023-03-31T00:06:10.645Z,77.20
2023-03-31T00:07:10.644Z,73.30
2023-03-31T00:08:10.627Z,67.90
2023-03-31T00:09:11.764Z,74.90
2023-03-31T00:10:17.978Z,72.80
2023-03-31T00:11:10.602Z,64.80
2023-03-31T00:12:10.586Z,72.70
2023-03-31T00:13:10.586Z,70.10
2023-03-31T00:14:10.591Z,72.50
2023-03-31T00:15:10.571Z,71.00
2023-03-31T00:16:10.826Z,69.10
2023-03-31T00:17:10.543Z,66.90
2023-03-31T00:18:10.591Z,70.40
2023-03-31T00:19:10.560Z,69.20
2023-03-31T00:20:10.519Z,67.80
2023-03-31T00:21:10.536Z,68.60
2023-03-31T00:22:10.504Z,69.10
2023-03-31T00:23:10.522Z,70.10
2023-03-31T00:24:10.492Z,69.50
2023-03-31T00:25:10.469Z,67.40
2023-03-31T00:26:10.453Z,66.70
2023-03-31T00:27:10.438Z,68.00
2023-03-31T00:28:10.424Z,66.70
2023-03-31T00:29:10.446Z,67.70
2023-03-31T00:30:10.400Z,69.30
2023-03-31T00:31:10.393Z,71.40
2023-03-31T00:32:10.415Z,70.70
2023-03-31T00:33:10.409Z,73.60
2023-03-31T00:34:10.381Z,72.70
2023-03-31T00:35:10.389Z,71.70
2023-03-31T00:36:10.375Z,70.40
2023-03-31T00:37:10.344Z,74.30
2023-03-31T00:38:10.313Z,75.70
2023-03-31T00:39:10.330Z,77.50
2023-03-31T00:40:10.296Z,82.10
2023-03-31T00:41:10.301Z,86.30
2023-03-31T00:42:10.279Z,86.50
2023-03-31T00:43:10.378Z,86.90
2023-03-31T00:44:10.293Z,84.70
2023-03-31T00:45:10.267Z,86.50
2023-03-31T00:46:10.274Z,84.30
2023-03-31T00:47:10.223Z,79.10
2023-03-31T00:48:10.446Z,83.60
2023-03-31T00:49:10.222Z,85.90
2023-03-31T00:50:10.209Z,81.70
2023-03-31T00:51:10.189Z,88.10
2023-03-31T00:52:10.171Z,94.90
2023-03-31T00:53:10.159Z,86.70
2023-03-31T00:54:10.181Z,88.30
2023-03-31T00:55:10.152Z,91.50
2023-03-31T00:56:10.148Z,90.90
2023-03-31T00:57:10.150Z,94.80
2023-03-31T00:58:10.109Z,95.20
2023-03-31T00:59:10.142Z,94.70
2023-03-31T01:00:10.099Z,89.80
2023-03-31T01:01:10.128Z,90.80
2023-03-31T01:02:10.063Z,89.70
2023-03-31T01:03:10.399Z,93.70
2023-03-31T01:04:10.174Z,95.00
2023-03-31T01:05:10.062Z,94.70
2023-03-31T01:06:10.035Z,91.40
2023-03-31T01:07:10.036Z,87.90
2023-03-31T01:08:10.020Z,92.10
2023-03-31T01:09:10.011Z,90.70
2023-03-31T01:10:10.013Z,85.80
2023-03-31T01:11:09.978Z,88.10
2023-03-31T01:12:09.989Z,94.20
2023-03-31T01:13:09.955Z,88.00
2023-03-31T01:14:09.955Z,92.40
2023-03-31T01:15:09.966Z,85.10
2023-03-31T01:16:09.926Z,86.20
2023-03-31T01:17:10.006Z,89.00
2023-03-31T01:18:10.062Z,89.90
2023-03-31T01:19:09.893Z,84.80
2023-03-31T01:20:09.904Z,93.50
2023-03-31T01:21:09.902Z,84.40
2023-03-31T01:22:09.861Z,92.60
2023-03-31T01:23:09.857Z,93.00
2023-03-31T01:24:09.843Z,95.00
2023-03-31T01:25:09.872Z,105.20
2023-03-31T01:26:09.818Z,95.60
2023-03-31T01:27:09.848Z,94.20
2023-03-31T01:28:09.791Z,96.20
2023-03-31T01:29:09.802Z,96.10
2023-03-31T01:30:09.820Z,100.20
2023-03-31T01:31:09.838Z,97.50
2023-03-31T01:32:09.771Z,99.90
2023-03-31T01:33:09.786Z,105.10
2023-03-31T01:34:09.754Z,103.20
2023-03-31T01:35:09.773Z,101.90
2023-03-31T01:36:09.791Z,100.10
2023-03-31T01:37:09.716Z,100.70
2023-03-31T01:38:09.691Z,94.90
2023-03-31T01:39:09.694Z,97.00
2023-03-31T01:40:09.775Z,98.90
2023-03-31T01:41:09.706Z,98.90
2023-03-31T01:42:09.664Z,95.50
2023-03-31T01:43:09.645Z,97.70
2023-03-31T01:44:09.641Z,89.30
2023-03-31T01:45:09.654Z,96.10
2023-03-31T01:46:09.747Z,98.10
2023-03-31T01:47:09.627Z,94.70
2023-03-31T01:48:09.603Z,97.80
2023-03-31T01:49:09.585Z,88.70
2023-03-31T01:50:09.598Z,91.20
2023-03-31T01:51:09.563Z,95.30
2023-03-31T01:52:09.588Z,101.00
2023-03-31T01:53:09.545Z,100.30
2023-03-31T01:54:09.540Z,102.30
2023-03-31T01:55:09.550Z,88.40
2023-03-31T01:56:09.507Z,91.70
2023-03-31T01:57:09.624Z,107.70
2023-03-31T01:58:09.488Z,109.50
2023-03-31T01:59:09.487Z,106.00
2023-03-31T02:00:09.491Z,111.30
2023-03-31T02:01:09.459Z,110.80
2023-03-31T02:02:09.484Z,112.50
2023-03-31T02:03:09.511Z,111.40
2023-03-31T02:04:09.427Z,110.80
2023-03-31T02:05:09.459Z,119.20
2023-03-31T02:06:09.406Z,121.50
2023-03-31T02:07:09.418Z,119.20
2023-03-31T02:08:09.380Z,120.60
2023-03-31T02:09:09.378Z,121.90
2023-03-31T02:10:09.400Z,110.60
2023-03-31T02:11:09.363Z,114.00
2023-03-31T02:12:09.345Z,125.70
2023-03-31T02:13:09.341Z,136.40
2023-03-31T02:14:09.334Z,145.20
2023-03-31T02:15:09.360Z,149.30
2023-03-31T02:16:09.603Z,142.60
2023-03-31T02:17:09.293Z,140.60
2023-03-31T02:18:09.275Z,137.90
2023-03-31T02:19:09.313Z,139.60
2023-03-31T02:20:09.269Z,149.90
2023-03-31T02:21:09.284Z,154.80
2023-03-31T02:22:09.259Z,153.20
2023-03-31T02:23:09.245Z,153.60
2023-03-31T02:24:09.221Z,156.60
2023-03-31T02:25:09.246Z,153.50
2023-03-31T02:26:09.248Z,163.50
2023-03-31T02:27:09.203Z,161.30
2023-03-31T02:28:09.210Z,158.90
2023-03-31T02:29:09.176Z,160.60
2023-03-31T02:30:09.161Z,161.30
2023-03-31T02:31:09.214Z,163.80
2023-03-31T02:32:09.136Z,162.40
2023-03-31T02:33:09.211Z,161.40
2023-03-31T02:34:09.115Z,169.00
2023-03-31T02:35:09.117Z,167.70
2023-03-31T02:36:09.491Z,167.60
2023-03-31T02:37:09.109Z,168.10
2023-03-31T02:38:09.079Z,162.60
2023-03-31T02:39:09.075Z,162.80
2023-03-31T02:40:09.052Z,174.80
2023-03-31T02:41:09.077Z,176.20
2023-03-31T02:42:09.054Z,178.90
2023-03-31T02:43:09.039Z,188.00
2023-03-31T02:44:09.013Z,188.00
2023-03-31T02:45:09.007Z,178.80
2023-03-31T02:46:09.333Z,170.80
2023-03-31T02:47:08.990Z,173.60
2023-03-31T02:48:08.971Z,175.10
2023-03-31T02:49:08.959Z,175.40
2023-03-31T02:50:08.969Z,178.10
2023-03-31T02:51:09.225Z,184.10
2023-03-31T02:52:08.927Z,192.20
2023-03-31T02:53:08.957Z,196.60
2023-03-31T02:54:08.912Z,183.60
2023-03-31T02:55:08.896Z,186.30
2023-03-31T02:56:08.902Z,197.70
2023-03-31T02:57:08.892Z,192.70
2023-03-31T02:58:08.894Z,194.20
2023-03-31T02:59:08.863Z,207.00
2023-03-31T03:00:08.847Z,207.90
2023-03-31T03:01:08.905Z,218.80
2023-03-31T03:02:08.848Z,219.10
2023-03-31T03:03:08.970Z,224.10
2023-03-31T03:04:08.799Z,225.20
2023-03-31T03:05:08.807Z,215.90
2023-03-31T03:06:08.913Z,211.50
2023-03-31T03:07:08.782Z,223.60
2023-03-31T03:08:08.758Z,211.70
2023-03-31T03:09:08.777Z,215.10
2023-03-31T03:10:08.747Z,221.80
2023-03-31T03:11:08.770Z,216.30
2023-03-31T03:12:08.740Z,216.50
2023-03-31T03:13:08.708Z,215.10
2023-03-31T03:14:08.704Z,223.50
2023-03-31T03:15:08.692Z,223.30
2023-03-31T03:16:08.700Z,216.00
2023-03-31T03:17:08.679Z,214.60
2023-03-31T03:18:08.694Z,213.00
2023-03-31T03:19:08.642Z,213.50
2023-03-31T03:20:08.648Z,216.10
2023-03-31T03:21:08.646Z,215.10
2023-03-31T03:22:09.349Z,220.60
2023-03-31T03:23:08.605Z,216.60
2023-03-31T03:24:08.600Z,217.30
2023-03-31T03:25:08.584Z,205.50
2023-03-31T03:26:08.602Z,202.20
2023-03-31T03:27:08.562Z,214.30
2023-03-31T03:28:08.584Z,211.60
2023-03-31T03:29:08.547Z,204.80
2023-03-31T03:30:08.536Z,207.70
2023-03-31T03:31:08.554Z,206.80
2023-03-31T03:32:08.532Z,213.80
2023-03-31T03:33:08.556Z,214.40
2023-03-31T03:34:08.495Z,206.80
2023-03-31T03:35:08.473Z,219.90
2023-03-31T03:36:08.702Z,223.20
2023-03-31T03:37:08.481Z,214.40
2023-03-31T03:38:08.453Z,216.30
2023-03-31T03:39:08.435Z,213.20
2023-03-31T03:40:08.466Z,214.00
2023-03-31T03:41:08.415Z,217.40
2023-03-31T03:42:08.446Z,211.70
2023-03-31T03:43:08.391Z,222.90
2023-03-31T03:44:08.404Z,215.30
2023-03-31T03:45:08.373Z,212.10
2023-03-31T03:46:08.668Z,204.20
2023-03-31T03:47:08.371Z,202.40
2023-03-31T03:48:08.398Z,199.90
2023-03-31T03:49:08.343Z,202.10
2023-03-31T03:50:08.350Z,200.40
2023-03-31T03:51:08.309Z,201.90
2023-03-31T03:52:08.325Z,196.50
2023-03-31T03:53:08.287Z,198.10
2023-03-31T03:54:08.291Z,202.50
2023-03-31T03:55:08.264Z,207.00
2023-03-31T03:56:08.615Z,201.90
2023-03-31T03:57:08.331Z,207.40
2023-03-31T03:58:08.274Z,216.40
2023-03-31T03:59:08.232Z,217.90
2023-03-31T04:00:08.224Z,209.70
2023-03-31T04:01:08.207Z,205.20
2023-03-31T04:02:08.305Z,212.70
2023-03-31T04:03:08.136Z,212.20
2023-03-31T04:04:08.174Z,209.50
2023-03-31T04:05:08.193Z,214.30
2023-03-31T04:06:08.539Z,212.40
2023-03-31T04:07:08.158Z,214.70
2023-03-31T04:08:08.131Z,212.80
2023-03-31T04:09:08.123Z,208.50
2023-03-31T04:10:08.125Z,217.40
2023-03-31T04:11:08.090Z,213.50
2023-03-31T04:12:08.107Z,219.20
2023-03-31T04:13:08.074Z,216.30
2023-03-31T04:14:08.079Z,224.10
2023-03-31T04:15:08.075Z,228.10
2023-03-31T04:16:08.294Z,232.50
2023-03-31T04:17:08.057Z,227.70
2023-03-31T04:18:08.052Z,226.20
2023-03-31T04:19:08.012Z,222.90
2023-03-31T04:20:08.000Z,221.20
2023-03-31T04:21:07.987Z,221.00
2023-03-31T04:22:08.003Z,218.70
2023-03-31T04:23:07.971Z,228.70
2023-03-31T04:24:07.958Z,228.80
2023-03-31T04:25:07.960Z,227.80
2023-03-31T04:26:08.236Z,231.80
2023-03-31T04:27:07.954Z,226.10
2023-03-31T04:28:07.921Z,230.40
2023-03-31T04:29:07.905Z,230.70
2023-03-31T04:30:07.891Z,227.50
2023-03-31T04:31:07.881Z,224.60
2023-03-31T04:32:07.963Z,223.20
2023-03-31T04:33:07.974Z,228.50
2023-03-31T04:34:07.852Z,226.30
2023-03-31T04:35:07.844Z,222.90
2023-03-31T04:36:08.906Z,228.20
2023-03-31T04:37:07.849Z,228.30
2023-03-31T04:38:07.809Z,228.70
2023-03-31T04:39:07.801Z,221.30
2023-03-31T04:40:07.794Z,218.90
2023-03-31T04:41:07.789Z,222.40
2023-03-31T04:42:07.773Z,214.20
2023-03-31T04:43:07.777Z,216.10
2023-03-31T04:44:07.756Z,219.30
2023-03-31T04:45:07.737Z,215.50
2023-03-31T04:46:07.967Z,211.40
2023-03-31T04:47:07.705Z,216.10
2023-03-31T04:48:07.840Z,212.40
2023-03-31T04:49:07.638Z,222.20
2023-03-31T04:50:08.286Z,219.20
2023-03-31T04:51:07.638Z,217.40
2023-03-31T04:52:07.611Z,220.40
2023-03-31T04:53:07.614Z,221.50
2023-03-31T04:54:07.620Z,218.20
2023-03-31T04:55:07.575Z,218.10
2023-03-31T04:56:07.791Z,220.50
2023-03-31T04:57:07.574Z,222.00
2023-03-31T04:58:07.572Z,217.90
2023-03-31T04:59:07.555Z,223.30
2023-03-31T05:00:07.559Z,227.90
2023-03-31T05:01:07.537Z,225.70
2023-03-31T05:02:07.521Z,224.00
2023-03-31T05:03:07.575Z,221.40
2023-03-31T05:04:07.532Z,219.50
2023-03-31T05:05:07.481Z,222.80
2023-03-31T05:06:07.812Z,223.90
2023-03-31T05:07:07.457Z,217.80
2023-03-31T05:08:07.474Z,217.00
2023-03-31T05:09:07.460Z,216.00
2023-03-31T05:10:07.478Z,223.10
2023-03-31T05:11:07.414Z,222.10
2023-03-31T05:12:07.418Z,223.00
2023-03-31T05:13:07.447Z,221.50
2023-03-31T05:14:07.409Z,224.30
2023-03-31T05:15:07.389Z,231.70
2023-03-31T05:16:07.692Z,235.30
2023-03-31T05:17:07.365Z,230.00
2023-03-31T05:18:07.422Z,228.90
2023-03-31T05:19:07.345Z,225.30
2023-03-31T05:20:07.325Z,224.80
2023-03-31T05:21:07.315Z,232.80
2023-03-31T05:22:07.309Z,231.50
2023-03-31T05:23:07.330Z,234.60
2023-03-31T05:24:07.289Z,229.10
2023-03-31T05:25:07.275Z,225.00
2023-03-31T05:26:07.425Z,224.40
2023-03-31T05:27:07.250Z,223.70
2023-03-31T05:28:07.282Z,228.60
2023-03-31T05:29:07.232Z,228.00
2023-03-31T05:30:07.238Z,224.40
2023-03-31T05:31:07.211Z,227.20
2023-03-31T05:32:07.225Z,225.30
2023-03-31T05:33:07.238Z,225.30
2023-03-31T05:34:07.188Z,224.50
2023-03-31T05:35:07.174Z,218.60
2023-03-31T05:36:07.362Z,219.30
2023-03-31T05:37:07.140Z,221.90
2023-03-31T05:38:07.168Z,217.60
2023-03-31T05:39:07.125Z,220.90
2023-03-31T05:40:07.118Z,219.10
2023-03-31T05:41:07.105Z,223.50
2023-03-31T05:42:07.098Z,220.90
2023-03-31T05:43:07.113Z,222.50
2023-03-31T05:44:07.084Z,225.20
2023-03-31T05:45:09.118Z,222.70
2023-03-31T05:46:07.442Z,227.30
2023-03-31T05:47:07.050Z,226.60
2023-03-31T05:48:07.102Z,227.50
2023-03-31T05:49:07.034Z,230.60
2023-03-31T05:50:07.010Z,228.10
2023-03-31T05:51:07.005Z,233.20
2023-03-31T05:52:06.989Z,235.30
2023-03-31T05:53:06.995Z,232.50
2023-03-31T05:54:07.068Z,230.40
2023-03-31T05:55:06.958Z,229.40
2023-03-31T05:56:07.194Z,236.60
2023-03-31T05:57:07.016Z,234.90
2023-03-31T05:58:06.947Z,235.50
2023-03-31T05:59:06.945Z,243.80
2023-03-31T06:00:06.969Z,237.50
2023-03-31T06:01:07.353Z,244.90
2023-03-31T06:02:06.901Z,242.70
2023-03-31T06:03:06.957Z,242.90
2023-03-31T06:04:06.917Z,246.70
2023-03-31T06:05:06.871Z,245.20
2023-03-31T06:06:06.850Z,242.80
2023-03-31T06:07:06.849Z,240.90
2023-03-31T06:08:06.833Z,245.70
2023-03-31T06:09:06.844Z,256.50
2023-03-31T06:10:06.811Z,254.60
2023-03-31T06:11:07.093Z,251.80
2023-03-31T06:12:06.801Z,246.60
2023-03-31T06:13:06.776Z,244.60
2023-03-31T06:14:06.813Z,248.60
2023-03-31T06:15:06.765Z,243.40
2023-03-31T06:16:06.942Z,245.30
2023-03-31T06:17:07.373Z,247.40
2023-03-31T06:18:06.772Z,244.40
2023-03-31T06:19:06.739Z,240.20
2023-03-31T06:20:16.380Z,236.80
2023-03-31T06:21:07.125Z,240.30
2023-03-31T06:22:06.712Z,236.80
2023-03-31T06:23:06.678Z,243.90
2023-03-31T06:24:06.705Z,242.20
2023-03-31T06:25:06.658Z,231.60
2023-03-31T06:26:06.668Z,235.70
2023-03-31T06:27:06.632Z,235.00
2023-03-31T06:28:06.633Z,236.40
2023-03-31T06:29:06.720Z,232.50
2023-03-31T06:30:06.606Z,227.60
2023-03-31T06:31:06.793Z,235.20
2023-03-31T06:32:06.845Z,232.30
2023-03-31T06:33:06.661Z,236.10
2023-03-31T06:34:06.589Z,235.50
2023-03-31T06:35:06.567Z,239.50
2023-03-31T06:36:06.596Z,230.00
2023-03-31T06:37:06.614Z,233.80
2023-03-31T06:38:06.570Z,231.00
2023-03-31T06:39:06.551Z,219.20
2023-03-31T06:40:06.528Z,222.30
2023-03-31T06:41:06.802Z,229.80
2023-03-31T06:42:06.534Z,230.00
2023-03-31T06:43:06.542Z,231.00
2023-03-31T06:44:06.568Z,227.50
2023-03-31T06:45:06.454Z,227.70
2023-03-31T06:46:07.051Z,220.90
2023-03-31T06:47:06.443Z,224.40
2023-03-31T06:48:06.452Z,225.90
2023-03-31T06:49:06.443Z,219.00
2023-03-31T06:50:06.430Z,221.20
2023-03-31T06:51:06.404Z,224.70
2023-03-31T06:52:06.424Z,221.00
2023-03-31T06:53:06.392Z,223.20
2023-03-31T06:54:06.410Z,219.60
2023-03-31T06:55:06.353Z,218.40
2023-03-31T06:56:06.659Z,215.80
2023-03-31T06:57:06.352Z,215.10
2023-03-31T06:58:06.344Z,214.00
2023-03-31T06:59:06.330Z,215.40
2023-03-31T07:00:06.337Z,209.80
2023-03-31T07:01:06.644Z,212.70
2023-03-31T07:02:06.332Z,213.00
2023-03-31T07:03:06.403Z,212.30
2023-03-31T07:04:06.308Z,203.10
2023-03-31T07:05:06.269Z,197.90
2023-03-31T07:06:06.246Z,197.10
2023-03-31T07:07:06.231Z,199.50
2023-03-31T07:08:06.226Z,190.40
2023-03-31T07:09:06.237Z,196.70
2023-03-31T07:10:06.222Z,202.60
2023-03-31T07:11:06.567Z,207.80
2023-03-31T07:12:06.181Z,205.10
2023-03-31T07:13:06.236Z,203.00
2023-03-31T07:14:06.184Z,201.50
2023-03-31T07:15:06.153Z,195.20
2023-03-31T07:16:06.360Z,184.80
2023-03-31T07:17:06.126Z,190.20
2023-03-31T07:18:06.157Z,192.80
2023-03-31T07:19:06.147Z,198.90
2023-03-31T07:20:06.104Z,183.00
2023-03-31T07:21:09.098Z,184.60
2023-03-31T07:22:06.094Z,182.70
2023-03-31T07:23:06.090Z,182.90
2023-03-31T07:24:06.093Z,183.80
2023-03-31T07:25:06.048Z,177.30
2023-03-31T07:26:06.063Z,175.30
2023-03-31T07:27:06.030Z,181.80
2023-03-31T07:28:06.016Z,178.00
2023-03-31T07:29:06.032Z,179.60
2023-03-31T07:30:05.994Z,180.30
2023-03-31T07:31:06.133Z,182.30
2023-03-31T07:32:06.021Z,182.10
2023-03-31T07:33:05.988Z,183.10
2023-03-31T07:34:05.982Z,190.80
2023-03-31T07:35:05.959Z,202.90
2023-03-31T07:36:12.451Z,209.50
2023-03-31T07:37:05.943Z,204.60
2023-03-31T07:38:05.926Z,201.90
2023-03-31T07:39:05.919Z,203.70
2023-03-31T07:40:05.914Z,206.20
2023-03-31T07:41:09.618Z,194.00
2023-03-31T07:42:05.967Z,199.00
2023-03-31T07:43:05.860Z,201.70
2023-03-31T07:44:05.851Z,210.80
2023-03-31T07:45:05.869Z,206.60
2023-03-31T07:46:06.266Z,201.60
2023-03-31T07:47:05.831Z,210.60
2023-03-31T07:48:05.862Z,204.20
2023-03-31T07:49:05.795Z,202.90
2023-03-31T07:50:05.808Z,197.90
2023-03-31T07:51:06.033Z,192.20
2023-03-31T07:52:05.763Z,198.70
2023-03-31T07:53:05.779Z,200.20
2023-03-31T07:54:05.751Z,196.60
2023-03-31T07:55:05.765Z,196.00
2023-03-31T07:56:05.976Z,206.60
2023-03-31T07:57:05.785Z,214.10
2023-03-31T07:58:05.698Z,214.50
2023-03-31T07:59:05.709Z,201.30
2023-03-31T08:00:05.699Z,198.50
2023-03-31T08:01:05.881Z,194.70
2023-03-31T08:02:05.721Z,201.30
2023-03-31T08:03:05.790Z,211.70
2023-03-31T08:04:05.687Z,207.80
2023-03-31T08:05:05.653Z,197.30
2023-03-31T08:06:05.864Z,198.90
2023-03-31T08:07:05.630Z,193.30
2023-03-31T08:08:05.605Z,199.30
2023-03-31T08:09:05.597Z,206.30
2023-03-31T08:10:05.599Z,204.70
2023-03-31T08:11:05.770Z,198.50
2023-03-31T08:12:05.575Z,192.80
2023-03-31T08:13:05.559Z,198.00
2023-03-31T08:14:05.532Z,201.50
2023-03-31T08:15:05.551Z,194.50
2023-03-31T08:16:05.858Z,200.50
2023-03-31T08:17:05.518Z,192.00
2023-03-31T08:18:05.560Z,194.50
2023-03-31T08:19:05.495Z,194.90
2023-03-31T08:20:07.828Z,200.10
2023-03-31T08:21:05.621Z,202.80
2023-03-31T08:22:05.460Z,208.20
2023-03-31T08:23:05.452Z,205.60
2023-03-31T08:24:05.437Z,206.50
2023-03-31T08:25:05.436Z,204.30
2023-03-31T08:26:05.627Z,201.40
2023-03-31T08:28:05.397Z,196.50
2023-03-31T08:29:05.375Z,196.20
2023-03-31T08:30:05.383Z,193.60
2023-03-31T08:31:05.355Z,193.10
2023-03-31T08:32:05.491Z,192.80
2023-03-31T08:33:05.445Z,195.30
2023-03-31T08:34:05.325Z,194.20
2023-03-31T08:35:05.359Z,202.70
2023-03-31T08:36:05.499Z,202.60
2023-03-31T08:37:05.934Z,200.50
2023-03-31T08:38:05.284Z,199.90
2023-03-31T08:39:05.278Z,197.80
2023-03-31T08:40:05.257Z,198.20
2023-03-31T08:41:05.276Z,198.20
2023-03-31T08:42:05.274Z,200.00
2023-03-31T08:43:05.242Z,203.10
2023-03-31T08:44:05.246Z,199.90
2023-03-31T08:45:05.217Z,210.60
2023-03-31T08:46:05.453Z,202.80
2023-03-31T08:47:05.194Z,198.90
2023-03-31T08:48:07.207Z,210.50
2023-03-31T08:49:05.178Z,204.60
2023-03-31T08:50:05.227Z,217.00
2023-03-31T08:51:05.381Z,217.40
2023-03-31T08:52:05.176Z,217.00
2023-03-31T08:53:05.130Z,215.70
2023-03-31T08:54:05.117Z,207.90
2023-03-31T08:55:05.101Z,202.50
2023-03-31T08:56:05.337Z,200.60
2023-03-31T08:57:05.139Z,198.30
2023-03-31T08:58:05.076Z,198.80
2023-03-31T08:59:05.075Z,209.00
2023-03-31T09:00:05.070Z,208.40
2023-03-31T09:01:05.333Z,208.90
2023-03-31T09:02:05.078Z,204.40
2023-03-31T09:03:07.318Z,202.70
2023-03-31T09:04:06.416Z,207.90
2023-03-31T09:05:05.001Z,196.60
2023-03-31T09:06:05.029Z,204.40
2023-03-31T09:07:04.979Z,201.60
2023-03-31T09:08:04.972Z,201.10
2023-03-31T09:09:04.966Z,207.50
2023-03-31T09:10:04.958Z,202.70
2023-03-31T09:11:05.037Z,207.30
2023-03-31T09:12:04.934Z,209.80
2023-03-31T09:13:04.949Z,205.20
2023-03-31T09:14:04.910Z,203.50
2023-03-31T09:15:04.902Z,202.90
2023-03-31T09:16:05.324Z,200.50
2023-03-31T09:17:04.903Z,198.10
2023-03-31T09:18:04.948Z,193.90
2023-03-31T09:19:04.853Z,192.90
2023-03-31T09:20:04.845Z,192.50
2023-03-31T09:21:05.035Z,188.50
2023-03-31T09:22:04.824Z,200.50
2023-03-31T09:23:04.835Z,206.00
2023-03-31T09:24:04.847Z,217.20
2023-03-31T09:25:04.801Z,220.70
2023-03-31T09:26:05.073Z,221.30
2023-03-31T09:27:04.781Z,223.90
2023-03-31T09:28:04.771Z,217.50
2023-03-31T09:29:04.774Z,212.90
2023-03-31T09:30:04.746Z,211.40
2023-03-31T09:31:04.806Z,208.20
2023-03-31T09:32:04.729Z,208.50
2023-03-31T09:33:04.733Z,222.80
2023-03-31T09:34:04.701Z,214.50
2023-03-31T09:35:04.697Z,215.20
2023-03-31T09:36:04.749Z,213.90
2023-03-31T09:37:04.699Z,201.60
2023-03-31T09:38:10.646Z,208.10
2023-03-31T09:39:04.648Z,216.00
2023-03-31T09:40:04.642Z,216.20
2023-03-31T09:41:04.639Z,215.70
2023-03-31T09:42:04.642Z,213.00
2023-03-31T09:43:04.614Z,215.50
2023-03-31T09:44:04.609Z,212.30
2023-03-31T09:45:04.594Z,219.60
2023-03-31T09:46:09.196Z,222.50
2023-03-31T09:47:04.670Z,220.70
2023-03-31T09:48:04.621Z,212.80
2023-03-31T09:49:04.592Z,209.50
2023-03-31T09:50:04.543Z,209.10
2023-03-31T09:51:04.538Z,204.50
2023-03-31T09:52:04.569Z,213.50
2023-03-31T09:53:04.519Z,207.50
2023-03-31T09:54:04.526Z,208.50
2023-03-31T09:55:04.489Z,212.70
2023-03-31T09:56:04.860Z,224.10
2023-03-31T09:57:04.518Z,230.90
2023-03-31T09:58:04.497Z,214.40
2023-03-31T09:59:04.482Z,212.30
2023-03-31T10:00:04.443Z,214.60
2023-03-31T10:01:04.793Z,217.70
2023-03-31T10:02:04.502Z,215.40
2023-03-31T10:03:04.454Z,206.60
2023-03-31T10:04:04.421Z,205.10
2023-03-31T10:05:04.420Z,211.30
2023-03-31T10:06:04.376Z,212.40
2023-03-31T10:07:04.390Z,199.60
2023-03-31T10:08:04.352Z,197.00
2023-03-31T10:09:04.351Z,194.40
2023-03-31T10:10:04.337Z,190.90
2023-03-31T10:11:04.421Z,200.10
2023-03-31T10:12:04.337Z,187.60
2023-03-31T10:13:04.310Z,194.80
2023-03-31T10:14:04.290Z,192.80
2023-03-31T10:15:04.292Z,192.50
2023-03-31T10:16:04.373Z,197.10
2023-03-31T10:17:04.307Z,193.90
2023-03-31T10:18:04.271Z,190.50
2023-03-31T10:19:04.248Z,194.00
2023-03-31T10:20:04.249Z,199.70
2023-03-31T10:21:04.434Z,192.10
2023-03-31T10:22:04.244Z,194.80
2023-03-31T10:23:05.160Z,196.00
2023-03-31T10:24:04.184Z,205.60
2023-03-31T10:25:04.205Z,197.60
2023-03-31T10:26:04.170Z,203.40
2023-03-31T10:27:04.161Z,198.50
2023-03-31T10:28:04.177Z,208.40
2023-03-31T10:29:04.154Z,205.50
2023-03-31T10:30:04.158Z,209.80
2023-03-31T10:31:04.496Z,220.30
2023-03-31T10:32:04.130Z,214.90
2023-03-31T10:33:15.404Z,210.70
2023-03-31T10:34:04.083Z,222.00
2023-03-31T10:35:04.091Z,224.70
2023-03-31T10:36:04.104Z,220.60
2023-03-31T10:37:04.063Z,204.20
2023-03-31T10:38:05.909Z,203.70
2023-03-31T10:39:04.040Z,195.50
2023-03-31T10:40:04.056Z,200.80
2023-03-31T10:41:04.252Z,208.20
2023-03-31T10:42:04.009Z,203.80
2023-03-31T10:43:04.014Z,212.20
2023-03-31T10:44:04.000Z,215.00
2023-03-31T10:45:03.969Z,215.20
2023-03-31T10:46:03.957Z,214.00
2023-03-31T10:47:03.968Z,203.20
2023-03-31T10:48:04.032Z,188.00
2023-03-31T10:49:03.934Z,195.50
2023-03-31T10:50:03.914Z,201.80
2023-03-31T10:51:04.125Z,197.70
2023-03-31T10:52:03.894Z,206.50
2023-03-31T10:53:03.929Z,216.70
2023-03-31T10:54:03.942Z,204.80
2023-03-31T10:55:09.852Z,199.50
2023-03-31T10:56:03.861Z,207.40
2023-03-31T10:57:03.867Z,213.10
2023-03-31T10:58:03.858Z,218.20
2023-03-31T10:59:06.072Z,223.70
2023-03-31T11:00:03.816Z,227.00
2023-03-31T11:01:03.937Z,242.10
2023-03-31T11:02:03.843Z,241.40
2023-03-31T11:03:03.854Z,246.40
2023-03-31T11:04:03.875Z,243.30
2023-03-31T11:05:03.767Z,243.50
2023-03-31T11:06:03.786Z,254.30
2023-03-31T11:07:03.749Z,245.80
2023-03-31T11:08:03.759Z,243.80
2023-03-31T11:09:03.739Z,246.60
2023-03-31T11:10:03.726Z,239.20
2023-03-31T11:11:03.803Z,225.30
2023-03-31T11:12:03.690Z,217.80
2023-03-31T11:13:03.752Z,213.80
2023-03-31T11:14:03.679Z,225.10
2023-03-31T11:15:03.681Z,233.40
2023-03-31T11:16:03.746Z,236.60
2023-03-31T11:17:03.661Z,242.70
2023-03-31T11:18:03.686Z,237.90
2023-03-31T11:19:03.670Z,249.00
2023-03-31T11:20:03.614Z,246.00
2023-03-31T11:21:03.758Z,239.40
2023-03-31T11:22:03.589Z,233.00
2023-03-31T11:23:03.586Z,220.20
2023-03-31T11:24:03.602Z,226.00
2023-03-31T11:25:03.574Z,228.50
2023-03-31T11:26:03.569Z,227.80
2023-03-31T11:27:03.550Z,228.60
2023-03-31T11:28:03.531Z,226.90
2023-03-31T11:29:03.594Z,244.40
2023-03-31T11:30:03.508Z,245.40
2023-03-31T11:31:03.570Z,247.70
2023-03-31T11:32:03.530Z,236.50
2023-03-31T11:33:03.532Z,205.50
2023-03-31T11:34:03.502Z,194.10
2023-03-31T11:35:03.470Z,196.80
2023-03-31T11:36:03.510Z,191.30
2023-03-31T11:37:03.441Z,179.90
2023-03-31T11:38:03.440Z,175.00
2023-03-31T11:39:03.461Z,162.20
2023-03-31T11:40:03.409Z,158.60
2023-03-31T11:41:03.512Z,142.70
2023-03-31T11:42:03.405Z,124.40
2023-03-31T11:43:03.377Z,119.50
2023-03-31T11:44:03.425Z,94.40
2023-03-31T11:45:03.381Z,76.20
2023-03-31T11:46:03.393Z,80.80
2023-03-31T11:47:03.339Z,77.10
2023-03-31T11:48:05.477Z,60.20
2023-03-31T11:49:03.338Z,68.20
2023-03-31T11:50:03.318Z,81.30
2023-03-31T11:51:03.297Z,83.30
2023-03-31T11:52:03.295Z,59.80
2023-03-31T11:53:03.279Z,59.40
2023-03-31T11:54:03.284Z,64.00
2023-03-31T11:55:03.541Z,78.60
2023-03-31T11:56:03.267Z,65.40
2023-03-31T11:57:03.284Z,62.70
2023-03-31T11:58:03.225Z,64.40
2023-03-31T11:59:03.233Z,52.60
2023-03-31T12:00:03.196Z,47.10
2023-03-31T12:01:03.490Z,71.80
2023-03-31T12:02:03.181Z,66.60
2023-03-31T12:03:03.250Z,76.40
2023-03-31T12:04:03.281Z,84.20
2023-03-31T12:05:03.177Z,72.90
2023-03-31T12:06:03.193Z,80.80
2023-03-31T12:07:03.130Z,82.90
2023-03-31T12:08:03.119Z,105.40
2023-03-31T12:09:03.147Z,103.30
2023-03-31T12:10:03.107Z,90.00
2023-03-31T12:11:03.088Z,109.40
2023-03-31T12:12:03.083Z,98.80
2023-03-31T12:13:03.412Z,87.00
2023-03-31T12:14:03.104Z,57.40
2023-03-31T12:15:03.092Z,58.40
2023-03-31T12:16:03.203Z,46.50
2023-03-31T12:17:03.063Z,23.70
2023-03-31T12:18:03.042Z,43.70
2023-03-31T12:19:03.036Z,36.60
2023-03-31T12:20:03.007Z,26.80
2023-03-31T12:21:02.979Z,32.00
2023-03-31T12:22:02.983Z,27.40
2023-03-31T12:23:03.018Z,18.30
2023-03-31T12:24:03.061Z,27.50
2023-03-31T12:25:02.944Z,36.60
2023-03-31T12:26:03.009Z,40.80
2023-03-31T12:27:02.922Z,35.50
2023-03-31T12:28:02.935Z,35.10
2023-03-31T12:29:02.902Z,36.60
2023-03-31T12:30:02.918Z,50.20
2023-03-31T12:31:02.960Z,30.50
2023-03-31T12:32:02.879Z,38.60
2023-03-31T12:33:02.906Z,49.90
2023-03-31T12:34:02.870Z,43.60